createdAt,value
2022-09-28T00:00:42.087Z,9.09
2022-09-28T00:01:42.138Z,9.09
2022-09-28T00:02:42.174Z,9.09
2022-09-28T00:03:42.052Z,9.08
2022-09-28T00:04:42.018Z,9.08
2022-09-28T00:05:42.053Z,9.07
2022-09-28T00:06:42.058Z,9.06
2022-09-28T00:07:42.014Z,9.06
2022-09-28T00:08:41.998Z,9.06
2022-09-28T00:09:41.978Z,9.06
2022-09-28T00:10:42.016Z,9.05
2022-09-28T00:11:41.947Z,9.05
2022-09-28T00:12:41.936Z,9.05
2022-09-28T00:13:41.935Z,9.06
2022-09-28T00:14:41.917Z,9.06
2022-09-28T00:15:41.907Z,9.06
2022-09-28T00:16:41.988Z,9.06
2022-09-28T00:17:41.931Z,9.06
2022-09-28T00:18:41.865Z,9.07
2022-09-28T00:19:41.844Z,9.07
2022-09-28T00:20:41.864Z,9.08
2022-09-28T00:21:41.863Z,9.08
2022-09-28T00:22:41.813Z,9.08
2022-09-28T00:23:41.823Z,9.08
2022-09-28T00:24:41.794Z,9.08
2022-09-28T00:25:41.776Z,9.08
2022-09-28T00:26:41.796Z,9.08
2022-09-28T00:27:41.759Z,9.08
2022-09-28T00:28:41.750Z,9.07
2022-09-28T00:29:41.726Z,9.07
2022-09-28T00:30:41.721Z,9.07
2022-09-28T00:31:41.739Z,9.06
2022-09-28T00:32:41.737Z,9.06
2022-09-28T00:33:41.694Z,9.06
2022-09-28T00:34:41.677Z,9.06
2022-09-28T00:35:41.665Z,9.07
2022-09-28T00:36:41.681Z,9.07
2022-09-28T00:37:41.679Z,9.07
2022-09-28T00:38:41.640Z,9.07
2022-09-28T00:39:41.616Z,9.08
2022-09-28T00:40:41.656Z,9.08
2022-09-28T00:41:41.595Z,9.08
2022-09-28T00:42:41.611Z,9.09
2022-09-28T00:43:41.597Z,9.10
2022-09-28T00:44:41.569Z,9.10
2022-09-28T00:45:41.562Z,9.11
2022-09-28T00:46:41.553Z,9.11
2022-09-28T00:47:41.556Z,9.11
2022-09-28T00:48:41.515Z,9.11
2022-09-28T00:49:41.523Z,9.11
2022-09-28T00:50:41.491Z,9.10
2022-09-28T00:51:41.480Z,9.10
2022-09-28T00:52:41.542Z,9.09
2022-09-28T00:53:41.469Z,9.09
2022-09-28T00:54:41.479Z,9.08
2022-09-28T00:55:41.466Z,9.08
2022-09-28T00:56:41.466Z,9.07
2022-09-28T00:57:41.438Z,9.07
2022-09-28T00:58:41.398Z,9.07
2022-09-28T00:59:41.410Z,9.06
2022-09-28T01:00:41.388Z,9.06
2022-09-28T01:01:41.427Z,9.05
2022-09-28T01:02:41.347Z,9.05
2022-09-28T01:03:41.358Z,9.05
2022-09-28T01:04:41.328Z,9.04
2022-09-28T01:05:41.331Z,9.04
2022-09-28T01:06:41.308Z,9.03
2022-09-28T01:07:41.296Z,9.03
2022-09-28T01:08:41.307Z,9.02
2022-09-28T01:09:41.295Z,9.02
2022-09-28T01:10:41.284Z,9.02
2022-09-28T01:11:41.261Z,9.02
2022-09-28T01:12:41.278Z,9.01
2022-09-28T01:13:41.249Z,9.01
2022-09-28T01:14:41.219Z,9.00
2022-09-28T01:15:41.200Z,9.00
2022-09-28T01:16:41.268Z,8.99
2022-09-28T01:17:41.180Z,8.99
2022-09-28T01:18:41.181Z,8.98
2022-09-28T01:19:41.163Z,8.97
2022-09-28T01:20:41.153Z,8.97
2022-09-28T01:21:41.145Z,8.97
2022-09-28T01:22:41.152Z,8.96
2022-09-28T01:23:41.110Z,8.95
2022-09-28T01:24:41.119Z,8.95
2022-09-28T01:25:41.104Z,8.94
2022-09-28T01:26:41.086Z,8.94
2022-09-28T01:27:41.061Z,8.94
2022-09-28T01:28:41.073Z,8.93
2022-09-28T01:29:41.042Z,8.93
2022-09-28T01:30:41.042Z,8.92
2022-09-28T01:31:41.112Z,8.92
2022-09-28T01:32:41.029Z,8.91
2022-09-28T01:33:41.004Z,8.91
2022-09-28T01:34:40.984Z,8.90
2022-09-28T01:35:40.980Z,8.89
2022-09-28T01:36:40.961Z,8.89
2022-09-28T01:37:40.946Z,8.88
2022-09-28T01:38:40.960Z,8.87
2022-09-28T01:39:40.948Z,8.86
2022-09-28T01:40:40.987Z,8.86
2022-09-28T01:41:40.905Z,8.85
2022-09-28T01:42:40.892Z,8.84
2022-09-28T01:43:40.880Z,8.84
2022-09-28T01:44:40.878Z,8.84
2022-09-28T01:45:40.908Z,8.83
2022-09-28T01:46:40.851Z,8.83
2022-09-28T01:47:40.830Z,8.82
2022-09-28T01:48:40.831Z,8.82
2022-09-28T01:49:40.821Z,8.81
2022-09-28T01:50:40.823Z,8.81
2022-09-28T01:51:40.816Z,8.80
2022-09-28T01:52:40.795Z,8.78
2022-09-28T01:53:40.767Z,8.77
2022-09-28T01:54:40.752Z,8.76
2022-09-28T01:55:40.752Z,8.75
2022-09-28T01:56:40.751Z,8.74
2022-09-28T01:57:40.724Z,8.73
2022-09-28T01:58:40.736Z,8.72
2022-09-28T01:59:40.691Z,8.71
2022-09-28T02:00:40.735Z,8.69
2022-09-28T02:01:40.716Z,8.68
2022-09-28T02:02:40.664Z,8.66
2022-09-28T02:03:40.651Z,8.64
2022-09-28T02:04:40.634Z,8.63
2022-09-28T02:05:40.635Z,8.63
2022-09-28T02:06:40.636Z,8.63
2022-09-28T02:07:40.618Z,8.63
2022-09-28T02:08:40.597Z,8.63
2022-09-28T02:09:40.591Z,8.63
2022-09-28T02:10:40.576Z,8.63
2022-09-28T02:11:40.602Z,8.63
2022-09-28T02:12:40.543Z,8.64
2022-09-28T02:13:40.532Z,8.64
2022-09-28T02:14:40.572Z,8.65
2022-09-28T02:15:40.515Z,8.65
2022-09-28T02:16:40.639Z,8.65
2022-09-28T02:17:40.509Z,8.65
2022-09-28T02:18:40.495Z,8.65
2022-09-28T02:19:40.476Z,8.66
2022-09-28T02:20:40.464Z,8.66
2022-09-28T02:21:40.489Z,8.66
2022-09-28T02:22:40.431Z,8.66
2022-09-28T02:23:40.420Z,8.67
2022-09-28T02:24:40.437Z,8.67
2022-09-28T02:25:40.411Z,8.67
2022-09-28T02:26:40.399Z,8.67
2022-09-28T02:27:40.385Z,8.66
2022-09-28T02:28:40.367Z,8.65
2022-09-28T02:29:40.361Z,8.64
2022-09-28T02:30:40.343Z,8.61
2022-09-28T02:31:40.411Z,8.59
2022-09-28T02:32:40.365Z,8.58
2022-09-28T02:33:40.309Z,8.57
2022-09-28T02:34:40.326Z,8.56
2022-09-28T02:35:40.301Z,8.56
2022-09-28T02:36:40.297Z,8.56
2022-09-28T02:37:40.275Z,8.56
2022-09-28T02:38:40.257Z,8.55
2022-09-28T02:39:40.237Z,8.54
2022-09-28T02:40:40.290Z,8.53
2022-09-28T02:41:40.217Z,8.53
2022-09-28T02:42:40.222Z,8.53
2022-09-28T02:43:40.199Z,8.53
2022-09-28T02:44:40.191Z,8.52
2022-09-28T02:45:40.213Z,8.52
2022-09-28T02:46:40.164Z,8.51
2022-09-28T02:47:40.217Z,8.50
2022-09-28T02:48:44.739Z,8.48
2022-09-28T02:49:41.132Z,8.47
2022-09-28T02:50:40.113Z,8.46
2022-09-28T02:51:40.118Z,8.45
2022-09-28T02:52:40.105Z,8.45
2022-09-28T02:53:40.125Z,8.44
2022-09-28T02:54:40.077Z,8.42
2022-09-28T02:55:40.055Z,8.42
2022-09-28T02:56:40.048Z,8.41
2022-09-28T02:57:40.055Z,8.41
2022-09-28T02:58:40.047Z,8.40
2022-09-28T02:59:40.039Z,8.40
2022-09-28T03:00:40.052Z,8.40
2022-09-28T03:01:40.081Z,8.39
2022-09-28T03:02:39.987Z,8.39
2022-09-28T03:03:39.979Z,8.39
2022-09-28T03:04:39.986Z,8.39
2022-09-28T03:05:39.988Z,8.38
2022-09-28T03:06:39.955Z,8.37
2022-09-28T03:07:39.940Z,8.36
2022-09-28T03:08:39.919Z,8.36
2022-09-28T03:09:39.908Z,8.35
2022-09-28T03:10:39.936Z,8.33
2022-09-28T03:11:39.878Z,8.32
2022-09-28T03:12:39.870Z,8.31
2022-09-28T03:13:39.858Z,8.29
2022-09-28T03:14:39.850Z,8.28
2022-09-28T03:15:39.846Z,8.27
2022-09-28T03:16:39.859Z,8.25
2022-09-28T03:17:39.815Z,8.23
2022-09-28T03:18:39.796Z,8.21
2022-09-28T03:19:39.792Z,8.19
2022-09-28T03:20:39.792Z,8.17
2022-09-28T03:21:39.757Z,8.15
2022-09-28T03:22:39.758Z,8.13
2022-09-28T03:23:39.749Z,8.11
2022-09-28T03:24:39.731Z,8.10
2022-09-28T03:25:39.725Z,8.08
2022-09-28T03:26:39.737Z,8.06
2022-09-28T03:27:39.707Z,8.04
2022-09-28T03:28:39.700Z,8.02
2022-09-28T03:29:39.669Z,8.01
2022-09-28T03:30:39.659Z,7.99
2022-09-28T03:31:39.715Z,7.98
2022-09-28T03:32:39.638Z,7.98
2022-09-28T03:33:39.631Z,7.97
2022-09-28T03:34:39.620Z,7.96
2022-09-28T03:35:39.607Z,7.94
2022-09-28T03:36:39.618Z,7.93
2022-09-28T03:37:39.600Z,7.92
2022-09-28T03:38:39.570Z,7.91
2022-09-28T03:39:39.561Z,7.90
2022-09-28T03:40:39.677Z,7.88
2022-09-28T03:41:39.561Z,7.87
2022-09-28T03:42:39.533Z,7.86
2022-09-28T03:43:39.520Z,7.84
2022-09-28T03:44:39.506Z,7.83
2022-09-28T03:45:39.530Z,7.82
2022-09-28T03:46:39.507Z,7.81
2022-09-28T03:47:39.482Z,7.79
2022-09-28T03:48:39.464Z,7.78
2022-09-28T03:49:39.473Z,7.77
2022-09-28T03:50:39.445Z,7.75
2022-09-28T03:51:39.453Z,7.75
2022-09-28T03:52:39.439Z,7.75
2022-09-28T03:53:39.413Z,7.75
2022-09-28T03:54:39.397Z,7.75
2022-09-28T03:55:39.382Z,7.75
2022-09-28T03:56:39.391Z,7.75
2022-09-28T03:57:39.366Z,7.75
2022-09-28T03:58:39.345Z,7.74
2022-09-28T03:59:39.333Z,7.74
2022-09-28T04:00:39.360Z,7.73
2022-09-28T04:01:39.414Z,7.72
2022-09-28T04:02:39.316Z,7.72
2022-09-28T04:03:39.291Z,7.72
2022-09-28T04:04:39.272Z,7.71
2022-09-28T04:05:39.284Z,7.71
2022-09-28T04:06:39.272Z,7.71
2022-09-28T04:07:39.239Z,7.71
2022-09-28T04:08:39.235Z,7.70
2022-09-28T04:09:39.226Z,7.70
2022-09-28T04:10:39.215Z,7.70
2022-09-28T04:12:02.408Z,7.71
2022-09-28T04:12:40.218Z,7.71
2022-09-28T04:13:39.181Z,7.72
2022-09-28T04:14:39.162Z,7.72
2022-09-28T04:15:39.170Z,7.72
2022-09-28T04:16:39.250Z,7.72
2022-09-28T04:17:40.200Z,7.73
2022-09-28T04:18:39.116Z,7.73
2022-09-28T04:19:39.099Z,7.73
2022-09-28T04:20:39.094Z,7.73
2022-09-28T04:21:39.104Z,7.73
2022-09-28T04:22:39.065Z,7.73
2022-09-28T04:23:39.058Z,7.73
2022-09-28T04:24:39.054Z,7.73
2022-09-28T04:25:39.037Z,7.74
2022-09-28T04:26:39.033Z,7.74
2022-09-28T04:27:39.023Z,7.74
2022-09-28T04:28:39.025Z,7.73
2022-09-28T04:29:38.983Z,7.73
2022-09-28T04:30:38.983Z,7.73
2022-09-28T04:31:39.046Z,7.73
2022-09-28T04:32:38.962Z,7.73
2022-09-28T04:33:38.943Z,7.74
2022-09-28T04:34:43.258Z,7.74
2022-09-28T04:35:39.926Z,7.74
2022-09-28T04:36:38.913Z,7.75
2022-09-28T04:37:38.922Z,7.76
2022-09-28T04:38:52.211Z,7.76
2022-09-28T04:39:39.895Z,7.76
2022-09-28T04:40:38.901Z,7.77
2022-09-28T04:41:38.863Z,7.77
2022-09-28T04:42:38.873Z,7.78
2022-09-28T04:43:38.841Z,7.78
2022-09-28T04:44:38.833Z,7.78
2022-09-28T04:45:38.895Z,7.77
2022-09-28T04:46:38.797Z,7.77
2022-09-28T04:47:38.853Z,7.77
2022-09-28T04:48:38.785Z,7.77
2022-09-28T04:49:38.761Z,7.76
2022-09-28T04:50:38.764Z,7.76
2022-09-28T04:51:38.758Z,7.76
2022-09-28T04:52:38.736Z,7.76
2022-09-28T04:53:38.750Z,7.76
2022-09-28T04:54:38.724Z,7.76
2022-09-28T04:55:38.706Z,7.76
2022-09-28T04:56:38.686Z,7.75
2022-09-28T04:57:38.674Z,7.76
2022-09-28T04:58:38.676Z,7.76
2022-09-28T04:59:38.676Z,7.76
2022-09-28T05:00:38.642Z,7.76
2022-09-28T05:01:38.736Z,7.76
2022-09-28T05:02:38.705Z,7.75
2022-09-28T05:03:38.614Z,7.75
2022-09-28T05:04:38.613Z,7.75
2022-09-28T05:05:38.590Z,7.74
2022-09-28T05:06:38.574Z,7.74
2022-09-28T05:07:38.579Z,7.74
2022-09-28T05:08:38.543Z,7.74
2022-09-28T05:09:38.789Z,7.74
2022-09-28T05:10:38.529Z,7.74
2022-09-28T05:11:38.520Z,7.74
2022-09-28T05:12:38.507Z,7.74
2022-09-28T05:13:38.499Z,7.73
2022-09-28T05:14:38.514Z,7.72
2022-09-28T05:15:38.475Z,7.71
2022-09-28T05:16:38.503Z,7.70
2022-09-28T05:17:38.479Z,7.69
2022-09-28T05:18:38.441Z,7.67
2022-09-28T05:19:38.445Z,7.66
2022-09-28T05:20:38.423Z,7.65
2022-09-28T05:21:38.409Z,7.65
2022-09-28T05:22:38.396Z,7.64
2022-09-28T05:23:38.382Z,7.63
2022-09-28T05:24:38.369Z,7.62
2022-09-28T05:25:38.387Z,7.61
2022-09-28T05:26:38.349Z,7.60
2022-09-28T05:27:38.357Z,7.60
2022-09-28T05:28:38.325Z,7.59
2022-09-28T05:29:38.325Z,7.59
2022-09-28T05:30:38.305Z,7.59
2022-09-28T05:31:38.340Z,7.59
2022-09-28T05:32:38.281Z,7.59
2022-09-28T05:33:38.278Z,7.59
2022-09-28T05:34:38.254Z,7.59
2022-09-28T05:35:38.245Z,7.60
2022-09-28T05:36:38.248Z,7.60
2022-09-28T05:37:38.224Z,7.61
2022-09-28T05:38:38.208Z,7.62
2022-09-28T05:39:38.205Z,7.63
2022-09-28T05:40:38.227Z,7.64
2022-09-28T05:41:38.212Z,7.65
2022-09-28T05:42:38.182Z,7.66
2022-09-28T05:43:38.156Z,7.67
2022-09-28T05:44:38.148Z,7.68
2022-09-28T05:45:38.208Z,7.68
2022-09-28T05:46:38.147Z,7.69
2022-09-28T05:47:38.119Z,7.70
2022-09-28T05:48:38.094Z,7.70
2022-09-28T05:49:38.089Z,7.71
2022-09-28T05:50:38.068Z,7.72
2022-09-28T05:51:38.083Z,7.72
2022-09-28T05:52:38.051Z,7.72
2022-09-28T05:53:38.075Z,7.70
2022-09-28T05:54:38.030Z,7.69
2022-09-28T05:55:38.017Z,7.68
2022-09-28T05:56:38.018Z,7.68
2022-09-28T05:57:38.021Z,7.69
2022-09-28T05:58:37.989Z,7.69
2022-09-28T05:59:37.977Z,7.70
2022-09-28T06:00:37.968Z,7.71
2022-09-28T06:01:37.986Z,7.72
2022-09-28T06:02:38.002Z,7.73
2022-09-28T06:03:37.937Z,7.74
2022-09-28T06:04:37.926Z,7.74
2022-09-28T06:05:37.911Z,7.75
2022-09-28T06:06:37.937Z,7.76
2022-09-28T06:07:37.882Z,7.76
2022-09-28T06:08:37.878Z,7.77
2022-09-28T06:09:37.870Z,7.78
2022-09-28T06:10:37.859Z,7.79
2022-09-28T06:11:37.840Z,7.79
2022-09-28T06:12:37.819Z,7.79
2022-09-28T06:13:37.836Z,7.80
2022-09-28T06:14:37.808Z,7.82
2022-09-28T06:15:37.795Z,7.83
2022-09-28T06:16:43.025Z,7.84
2022-09-28T06:17:38.806Z,7.86
2022-09-28T06:18:37.776Z,7.87
2022-09-28T06:19:37.768Z,7.88
2022-09-28T06:20:37.739Z,7.89
2022-09-28T06:21:37.735Z,7.90
2022-09-28T06:22:37.758Z,7.90
2022-09-28T06:23:37.707Z,7.91
2022-09-28T06:24:37.719Z,7.92
2022-09-28T06:25:37.678Z,7.94
2022-09-28T06:26:37.678Z,7.96
2022-09-28T06:27:37.675Z,7.99
2022-09-28T06:28:37.655Z,8.03
2022-09-28T06:29:37.661Z,8.06
2022-09-28T06:30:37.707Z,8.10
2022-09-28T06:31:37.608Z,8.13
2022-09-28T06:32:37.608Z,8.16
2022-09-28T06:33:37.592Z,8.19
2022-09-28T06:34:37.579Z,8.21
2022-09-28T06:35:37.588Z,8.24
2022-09-28T06:36:37.581Z,8.27
2022-09-28T06:37:37.563Z,8.29
2022-09-28T06:38:37.537Z,8.31
2022-09-28T06:39:37.545Z,8.33
2022-09-28T06:40:37.559Z,8.34
2022-09-28T06:41:37.497Z,8.36
2022-09-28T06:42:37.512Z,8.38
2022-09-28T06:43:37.491Z,8.39
2022-09-28T06:44:37.477Z,8.40
2022-09-28T06:45:37.490Z,8.42
2022-09-28T06:46:37.501Z,8.44
2022-09-28T06:47:37.442Z,8.47
2022-09-28T06:48:37.420Z,8.49
2022-09-28T06:49:37.439Z,8.52
2022-09-28T06:50:37.649Z,8.55
2022-09-28T06:51:37.417Z,8.58
2022-09-28T06:52:37.367Z,8.60
2022-09-28T06:53:37.370Z,8.62
2022-09-28T06:54:37.348Z,8.65
2022-09-28T06:55:37.399Z,8.67
2022-09-28T06:56:37.328Z,8.70
2022-09-28T06:57:37.329Z,8.73
2022-09-28T06:58:37.346Z,8.76
2022-09-28T06:59:37.299Z,8.79
2022-09-28T07:00:37.283Z,8.81
2022-09-28T07:01:37.356Z,8.84
2022-09-28T07:02:37.333Z,8.86
2022-09-28T07:03:37.237Z,8.89
2022-09-28T07:04:37.233Z,8.91
2022-09-28T07:05:37.243Z,8.94
2022-09-28T07:06:37.235Z,8.96
2022-09-28T07:07:37.221Z,8.96
2022-09-28T07:08:37.215Z,8.96
2022-09-28T07:09:42.653Z,8.97
2022-09-28T07:10:38.173Z,8.98
2022-09-28T07:11:37.173Z,9.00
2022-09-28T07:12:37.193Z,9.02
2022-09-28T07:13:49.495Z,9.05
2022-09-28T07:14:47.416Z,9.08
2022-09-28T07:15:38.157Z,9.11
2022-09-28T07:17:05.104Z,9.14
2022-09-28T07:17:53.906Z,9.16
2022-09-28T07:18:38.085Z,9.18
2022-09-28T07:19:37.063Z,9.20
2022-09-28T07:20:47.528Z,9.24
2022-09-28T07:21:38.073Z,9.28
2022-09-28T07:22:42.868Z,9.33
2022-09-28T07:23:48.754Z,9.37
2022-09-28T07:24:38.003Z,9.40
2022-09-28T07:25:36.995Z,9.43
2022-09-28T07:26:36.984Z,9.46
2022-09-28T07:27:37.002Z,9.50
2022-09-28T07:28:36.969Z,9.54
2022-09-28T07:29:36.957Z,9.58
2022-09-28T07:30:37.038Z,9.62
2022-09-28T07:31:36.944Z,9.67
2022-09-28T07:32:36.939Z,9.72
2022-09-28T07:33:36.905Z,9.77
2022-09-28T07:34:36.896Z,9.82
2022-09-28T07:35:36.876Z,9.86
2022-09-28T07:36:36.874Z,9.90
2022-09-28T07:37:36.884Z,9.94
2022-09-28T07:38:36.843Z,9.96
2022-09-28T07:39:36.848Z,9.98
2022-09-28T07:40:36.869Z,10.00
2022-09-28T07:41:36.815Z,10.00
2022-09-28T07:42:36.804Z,10.00
2022-09-28T07:43:36.801Z,10.02
2022-09-28T07:44:36.782Z,10.04
2022-09-28T07:45:36.815Z,10.06
2022-09-28T07:46:36.755Z,10.08
2022-09-28T07:47:36.765Z,10.09
2022-09-28T07:48:36.754Z,10.10
2022-09-28T07:49:36.719Z,10.12
2022-09-28T07:50:36.717Z,10.14
2022-09-28T07:51:36.717Z,10.16
2022-09-28T07:52:36.682Z,10.19
2022-09-28T07:53:36.685Z,10.22
2022-09-28T07:54:36.680Z,10.24
2022-09-28T07:55:36.647Z,10.26
2022-09-28T07:56:36.649Z,10.27
2022-09-28T07:57:36.648Z,10.28
2022-09-28T07:58:36.677Z,10.29
2022-09-28T07:59:36.606Z,10.27
2022-09-28T08:00:36.619Z,10.25
2022-09-28T08:01:36.631Z,10.26
2022-09-28T08:02:36.613Z,10.28
2022-09-28T08:03:36.582Z,10.30
2022-09-28T08:04:36.550Z,10.34
2022-09-28T08:05:36.539Z,10.38
2022-09-28T08:06:36.538Z,10.43
2022-09-28T08:07:36.517Z,10.49
2022-09-28T08:08:36.527Z,10.57
2022-09-28T08:09:36.520Z,10.64
2022-09-28T08:10:36.552Z,10.72
2022-09-28T08:11:36.469Z,10.77
2022-09-28T08:12:36.461Z,10.79
2022-09-28T08:13:36.456Z,10.81
2022-09-28T08:14:36.431Z,10.84
2022-09-28T08:15:36.434Z,10.88
2022-09-28T08:17:36.399Z,10.98
2022-09-28T08:18:36.399Z,11.01
2022-09-28T08:19:36.385Z,11.03
2022-09-28T08:20:36.402Z,11.06
2022-09-28T08:21:36.360Z,11.08
2022-09-28T08:22:36.341Z,11.13
2022-09-28T08:23:36.352Z,11.20
2022-09-28T08:24:36.328Z,11.28
2022-09-28T08:25:36.321Z,11.37
2022-09-28T08:26:36.336Z,11.48
2022-09-28T08:27:36.306Z,11.56
2022-09-28T08:28:36.294Z,11.60
2022-09-28T08:29:36.267Z,11.63
2022-09-28T08:30:36.275Z,11.65
2022-09-28T08:31:36.263Z,11.67
2022-09-28T08:32:36.225Z,11.67
2022-09-28T08:33:36.230Z,11.65
2022-09-28T08:34:36.215Z,11.65
2022-09-28T08:35:36.192Z,11.65
2022-09-28T08:36:36.224Z,11.65
2022-09-28T08:37:36.172Z,11.65
2022-09-28T08:38:36.152Z,11.62
2022-09-28T08:39:36.153Z,11.56
2022-09-28T08:40:36.155Z,11.51
2022-09-28T08:41:36.144Z,11.47
2022-09-28T08:42:36.122Z,11.45
2022-09-28T08:43:36.114Z,11.46
2022-09-28T08:44:36.111Z,11.49
2022-09-28T08:45:36.200Z,11.52
2022-09-28T08:46:36.128Z,11.53
2022-09-28T08:47:36.061Z,11.54
2022-09-28T08:48:36.045Z,11.59
2022-09-28T08:49:36.353Z,11.64
2022-09-28T08:50:36.012Z,11.69
2022-09-28T08:51:36.000Z,11.71
2022-09-28T08:52:36.024Z,11.72
2022-09-28T08:53:36.006Z,11.72
2022-09-28T08:54:35.984Z,11.72
2022-09-28T08:55:35.955Z,11.71
2022-09-28T08:56:35.960Z,11.72
2022-09-28T08:57:35.968Z,11.73
2022-09-28T08:58:35.945Z,11.73
2022-09-28T08:59:35.934Z,11.74
2022-09-28T09:00:35.903Z,11.75
2022-09-28T09:01:35.962Z,11.74
2022-09-28T09:02:35.929Z,11.74
2022-09-28T09:03:35.870Z,11.72
2022-09-28T09:04:35.866Z,11.69
2022-09-28T09:05:35.850Z,11.65
2022-09-28T09:06:35.847Z,11.62
2022-09-28T09:07:35.825Z,11.59
2022-09-28T09:08:35.826Z,11.57
2022-09-28T09:09:35.805Z,11.56
2022-09-28T09:10:35.781Z,11.55
2022-09-28T09:11:35.794Z,11.55
2022-09-28T09:12:35.777Z,11.56
2022-09-28T09:13:35.765Z,11.55
2022-09-28T09:14:35.758Z,11.55
2022-09-28T09:15:35.736Z,11.54
2022-09-28T09:16:35.780Z,11.52
2022-09-28T09:17:35.695Z,11.50
2022-09-28T09:18:35.706Z,11.49
2022-09-28T09:19:35.692Z,11.49
2022-09-28T09:20:35.675Z,11.50
2022-09-28T09:21:35.657Z,11.50
2022-09-28T09:22:35.648Z,11.50
2022-09-28T09:23:35.648Z,11.51
2022-09-28T09:24:35.638Z,11.51
2022-09-28T09:25:38.509Z,11.52
2022-09-28T09:26:35.618Z,11.51
2022-09-28T09:27:35.582Z,11.50
2022-09-28T09:28:35.620Z,11.46
2022-09-28T09:29:35.567Z,11.44
2022-09-28T09:30:35.596Z,11.42
2022-09-28T09:31:35.538Z,11.42
2022-09-28T09:32:35.549Z,11.42
2022-09-28T09:33:35.549Z,11.42
2022-09-28T09:34:35.518Z,11.43
2022-09-28T09:35:35.516Z,11.43
2022-09-28T09:36:35.490Z,11.42
2022-09-28T09:37:35.470Z,11.41
2022-09-28T09:38:35.482Z,11.40
2022-09-28T09:39:35.470Z,11.39
2022-09-28T09:40:35.606Z,11.39
2022-09-28T09:41:35.442Z,11.40
2022-09-28T09:42:35.444Z,11.41
2022-09-28T09:43:35.411Z,11.43
2022-09-28T09:44:35.399Z,11.46
2022-09-28T09:45:35.556Z,11.50
2022-09-28T09:46:35.373Z,11.55
2022-09-28T09:47:35.358Z,11.60
2022-09-28T09:48:35.360Z,11.65
2022-09-28T09:49:35.331Z,11.69
2022-09-28T09:50:35.326Z,11.72
2022-09-28T09:51:35.352Z,11.75
2022-09-28T09:52:36.970Z,11.77
2022-09-28T09:53:37.764Z,11.79
2022-09-28T09:54:35.321Z,11.80
2022-09-28T09:55:35.302Z,11.81
2022-09-28T09:56:35.269Z,11.82
2022-09-28T09:57:35.258Z,11.82
2022-09-28T09:58:35.244Z,11.81
2022-09-28T09:59:35.222Z,11.80
2022-09-28T10:00:35.214Z,11.79
2022-09-28T10:01:35.336Z,11.78
2022-09-28T10:02:35.249Z,11.76
2022-09-28T10:03:35.171Z,11.73
2022-09-28T10:04:35.171Z,11.70
2022-09-28T10:05:35.155Z,11.68
2022-09-28T10:06:35.166Z,11.67
2022-09-28T10:07:35.171Z,11.67
2022-09-28T10:08:35.121Z,11.67
2022-09-28T10:09:35.102Z,11.69
2022-09-28T10:10:35.111Z,11.71
2022-09-28T10:11:35.123Z,11.75
2022-09-28T10:12:35.080Z,11.79
2022-09-28T10:13:35.076Z,11.83
2022-09-28T10:14:35.073Z,11.87
2022-09-28T10:15:35.032Z,11.91
2022-09-28T10:16:35.082Z,11.94
2022-09-28T10:17:35.033Z,11.96
2022-09-28T10:18:35.012Z,11.97
2022-09-28T10:19:34.983Z,11.97
2022-09-28T10:20:34.989Z,11.98
2022-09-28T10:21:34.970Z,11.99
2022-09-28T10:22:34.969Z,11.99
2022-09-28T10:23:34.987Z,12.00
2022-09-28T10:24:34.947Z,12.01
2022-09-28T10:25:34.913Z,12.03
2022-09-28T10:26:34.904Z,12.05
2022-09-28T10:27:34.905Z,12.07
2022-09-28T10:28:34.934Z,12.10
2022-09-28T10:29:34.886Z,12.13
2022-09-28T10:30:34.897Z,12.16
2022-09-28T10:31:34.858Z,12.19
2022-09-28T10:32:34.843Z,12.21
2022-09-28T10:33:34.865Z,12.22
2022-09-28T10:34:34.838Z,12.23
2022-09-28T10:35:34.807Z,12.24
2022-09-28T10:36:34.799Z,12.24
2022-09-28T10:37:34.808Z,12.24
2022-09-28T10:38:34.763Z,12.23
2022-09-28T10:39:34.787Z,12.22
2022-09-28T10:40:34.810Z,12.20
2022-09-28T10:41:34.728Z,12.19
2022-09-28T10:42:34.736Z,12.17
2022-09-28T10:43:34.719Z,12.16
2022-09-28T10:44:34.724Z,12.15
2022-09-28T10:45:34.683Z,12.15
2022-09-28T10:46:34.758Z,12.15
2022-09-28T10:47:34.664Z,12.16
2022-09-28T10:48:34.665Z,12.17
2022-09-28T10:49:34.658Z,12.18
2022-09-28T10:50:34.677Z,12.19
2022-09-28T10:51:34.614Z,12.21
2022-09-28T10:52:34.617Z,12.21
2022-09-28T10:53:34.600Z,12.21
2022-09-28T10:54:34.603Z,12.21
2022-09-28T10:55:34.571Z,12.21
2022-09-28T10:56:34.563Z,12.21
2022-09-28T10:57:34.568Z,12.21
2022-09-28T10:58:34.539Z,12.22
2022-09-28T10:59:34.537Z,12.22
2022-09-28T11:00:34.518Z,12.23
2022-09-28T11:01:34.565Z,12.24
2022-09-28T11:02:36.187Z,12.25
2022-09-28T11:03:34.502Z,12.26
2022-09-28T11:04:34.491Z,12.27
2022-09-28T11:05:34.449Z,12.26
2022-09-28T11:06:34.480Z,12.27
2022-09-28T11:07:34.455Z,12.27
2022-09-28T11:08:34.428Z,12.27
2022-09-28T11:09:34.409Z,12.27
2022-09-28T11:10:34.423Z,12.27
2022-09-28T11:11:34.391Z,12.26
2022-09-28T11:12:34.394Z,12.27
2022-09-28T11:13:34.387Z,12.27
2022-09-28T11:14:37.225Z,12.27
2022-09-28T11:15:35.346Z,12.27
2022-09-28T11:16:34.505Z,12.28
2022-09-28T11:17:34.320Z,12.29
2022-09-28T11:18:34.318Z,12.30
2022-09-28T11:19:34.323Z,12.31
2022-09-28T11:20:34.305Z,12.32
2022-09-28T11:21:34.277Z,12.34
2022-09-28T11:22:34.261Z,12.36
2022-09-28T11:23:34.258Z,12.39
2022-09-28T11:24:34.230Z,12.42
2022-09-28T11:25:34.234Z,12.45
2022-09-28T11:26:34.245Z,12.46
2022-09-28T11:27:34.214Z,12.46
2022-09-28T11:28:34.198Z,12.46
2022-09-28T11:29:34.222Z,12.47
2022-09-28T11:30:34.236Z,12.49
2022-09-28T11:31:34.170Z,12.49
2022-09-28T11:32:34.152Z,12.49
2022-09-28T11:33:34.134Z,12.49
2022-09-28T11:34:57.580Z,12.48
2022-09-28T11:35:35.133Z,12.48
2022-09-28T11:36:34.102Z,12.48
2022-09-28T11:37:34.091Z,12.49
2022-09-28T11:38:34.090Z,12.49
2022-09-28T11:39:34.067Z,12.48
2022-09-28T11:40:34.113Z,12.47
2022-09-28T11:41:34.068Z,12.46
2022-09-28T11:42:34.044Z,12.44
2022-09-28T11:43:34.022Z,12.44
2022-09-28T11:44:34.008Z,12.44
2022-09-28T11:45:34.012Z,12.45
2022-09-28T11:46:34.105Z,12.46
2022-09-28T11:47:33.973Z,12.47
2022-09-28T11:48:33.965Z,12.47
2022-09-28T11:49:33.954Z,12.46
2022-09-28T11:50:33.934Z,12.46
2022-09-28T11:51:33.929Z,12.45
2022-09-28T11:52:33.966Z,12.44
2022-09-28T11:53:33.906Z,12.43
2022-09-28T11:54:33.904Z,12.41
2022-09-28T11:55:33.896Z,12.39
2022-09-28T11:56:33.904Z,12.38
2022-09-28T11:57:33.918Z,12.37
2022-09-28T11:58:33.886Z,12.36
2022-09-28T11:59:33.841Z,12.36
2022-09-28T12:00:33.823Z,12.37
2022-09-28T12:01:33.812Z,12.37
2022-09-28T12:02:33.940Z,12.38
2022-09-28T12:03:33.954Z,12.39
2022-09-28T12:04:33.773Z,12.41
2022-09-28T12:05:33.777Z,12.43
2022-09-28T12:06:33.747Z,12.45
2022-09-28T12:07:33.748Z,12.46
2022-09-28T12:08:33.760Z,12.48
2022-09-28T12:09:33.720Z,12.50
2022-09-28T12:10:33.714Z,12.52
2022-09-28T12:11:33.691Z,12.54
2022-09-28T12:12:33.678Z,12.56
2022-09-28T12:13:33.698Z,12.58
2022-09-28T12:14:33.646Z,12.60
2022-09-28T12:15:47.211Z,12.62
2022-09-28T12:17:34.697Z,12.66
2022-09-28T12:18:33.619Z,12.67
2022-09-28T12:19:33.630Z,12.67
2022-09-28T12:20:33.582Z,12.68
2022-09-28T12:21:33.666Z,12.68
2022-09-28T12:22:33.566Z,12.68
2022-09-28T12:23:33.551Z,12.69
2022-09-28T12:24:33.559Z,12.70
2022-09-28T12:25:33.566Z,12.71
2022-09-28T12:26:37.197Z,12.73
2022-09-28T12:27:33.513Z,12.74
2022-09-28T12:28:33.499Z,12.74
2022-09-28T12:29:33.497Z,12.75
2022-09-28T12:30:33.507Z,12.75
2022-09-28T12:31:33.483Z,12.76
2022-09-28T12:32:33.456Z,12.76
2022-09-28T12:33:33.441Z,12.75
2022-09-28T12:34:33.435Z,12.75
2022-09-28T12:35:33.481Z,12.74
2022-09-28T12:36:33.391Z,12.73
2022-09-28T12:37:33.399Z,12.72
2022-09-28T12:38:33.384Z,12.72
2022-09-28T12:39:47.257Z,12.73
2022-09-28T12:40:34.401Z,12.73
2022-09-28T12:41:33.346Z,12.73
2022-09-28T12:42:33.394Z,12.73
2022-09-28T12:43:33.330Z,12.73
2022-09-28T12:44:33.312Z,12.73
2022-09-28T12:45:42.911Z,12.73
2022-09-28T12:46:34.355Z,12.72
2022-09-28T12:47:33.456Z,12.72
2022-09-28T12:48:33.272Z,12.72
2022-09-28T12:50:36.552Z,12.72
2022-09-28T12:50:38.525Z,12.72
2022-09-28T12:51:34.261Z,12.72
2022-09-28T12:52:33.574Z,12.72
2022-09-28T12:53:33.221Z,12.72
2022-09-28T12:54:33.231Z,12.72
2022-09-28T12:55:33.184Z,12.71
2022-09-28T12:56:33.161Z,12.71
2022-09-28T12:57:33.191Z,12.70
2022-09-28T12:58:33.152Z,12.68
2022-09-28T12:59:33.164Z,12.67
2022-09-28T13:00:33.124Z,12.66
2022-09-28T13:01:33.173Z,12.65
2022-09-28T13:02:33.173Z,12.65
2022-09-28T13:03:33.097Z,12.65
2022-09-28T13:04:33.094Z,12.64
2022-09-28T13:05:33.069Z,12.64
2022-09-28T13:06:33.065Z,12.64
2022-09-28T13:07:33.068Z,12.64
2022-09-28T13:08:33.034Z,12.63
2022-09-28T13:09:33.030Z,12.63